Aberdeen, South Dakota
Current Conditions -  °F | °C
As of 4:53 AM on Friday 28 Nov 2014 (Local Time) from KABR Reporting Station
Clear Clear  
Wind Chill:   Ceiling: Unl
Heat Index: 10°   Visibility: 10mi
Dew Point:   Wind: 5mph
Humidity: 80%   Direction: 20°NNE
Pressure: 29.88"   Gusts: NA
Location:  45.46°N, 98.49°W
Report Text: KABR 281053Z AUTO 02004KT 10SM CLR M12/M15 A2988 RMK AO2 SLP143 T11221150 $
Loading
Personal Weather Stations






























Interactive Weather Map New forecast layout! Learn more

10-Day Weather Forecast

Advertisements
Track Severe Weather on mobile